createdAt,value
2017-08-18T00:00:29.974Z,95236.17
2017-08-18T00:02:57.515Z,95238.06
2017-08-18T00:05:25.059Z,95235.62
2017-08-18T00:07:52.573Z,95236.41
2017-08-18T00:10:20.110Z,95233.01
2017-08-18T00:12:48.912Z,95230.23
2017-08-18T00:15:16.405Z,95228.70
2017-08-18T00:17:43.978Z,95219.11
2017-08-18T00:20:11.479Z,95221.55
2017-08-18T00:22:38.985Z,95229.97
2017-08-18T00:25:06.534Z,95225.56
2017-08-18T00:27:34.034Z,95228.61
2017-08-18T00:30:01.561Z,95230.16
2017-08-18T00:32:29.097Z,95227.33
2017-08-18T00:34:56.732Z,95225.59
2017-08-18T00:37:24.296Z,95222.24
2017-08-18T00:39:51.863Z,95224.63
2017-08-18T00:42:19.366Z,95216.99
2017-08-18T00:44:46.897Z,95226.50
2017-08-18T00:47:14.398Z,95221.27
2017-08-18T00:49:41.928Z,95221.63
2017-08-18T00:52:09.473Z,95219.20
2017-08-18T00:54:36.969Z,95228.63
2017-08-18T00:57:04.509Z,95225.61
2017-08-18T00:59:32.006Z,95221.67
2017-08-18T01:01:59.597Z,95229.30
2017-08-18T01:04:27.132Z,95217.02
2017-08-18T01:06:54.638Z,95227.73
2017-08-18T01:09:22.193Z,95220.50
2017-08-18T01:11:49.737Z,95212.52
2017-08-18T01:14:17.241Z,95226.73
2017-08-18T01:16:44.802Z,95226.76
2017-08-18T01:19:12.297Z,95226.40
2017-08-18T01:21:39.789Z,95225.71
2017-08-18T01:24:07.330Z,95233.29
2017-08-18T01:26:34.833Z,95223.33
2017-08-18T01:29:02.333Z,95229.34
2017-08-18T01:31:29.873Z,95226.16
2017-08-18T01:33:57.429Z,95217.36
2017-08-18T01:36:24.927Z,95222.80
2017-08-18T01:38:52.420Z,95223.04
2017-08-18T01:41:19.976Z,95223.83
2017-08-18T01:43:47.476Z,95221.02
2017-08-18T01:46:14.969Z,95215.70
2017-08-18T01:48:42.521Z,95223.67
2017-08-18T01:51:10.015Z,95223.33
2017-08-18T01:53:37.518Z,95218.79
2017-08-18T01:56:05.058Z,95213.72
2017-08-18T01:58:32.556Z,95213.70
2017-08-18T02:01:00.157Z,95207.29
2017-08-18T02:03:27.653Z,95206.02
2017-08-18T02:05:55.323Z,95217.75
2017-08-18T02:08:22.838Z,95202.38
2017-08-18T02:10:50.356Z,95214.02
2017-08-18T02:13:17.910Z,95215.56
2017-08-18T02:15:45.473Z,95211.61
2017-08-18T02:18:12.980Z,95209.16
2017-08-18T02:20:40.477Z,95217.48
2017-08-18T02:23:08.018Z,95219.45
2017-08-18T02:25:35.526Z,95215.70
2017-08-18T02:28:03.068Z,95216.42
2017-08-18T02:30:30.662Z,95210.41
2017-08-18T02:32:58.164Z,95210.97
2017-08-18T02:35:25.667Z,95212.14
2017-08-18T02:37:53.227Z,95213.87
2017-08-18T02:40:20.742Z,95209.02
2017-08-18T02:42:48.284Z,95219.00
2017-08-18T02:45:15.800Z,95212.23
2017-08-18T02:47:43.297Z,95207.70
2017-08-18T02:50:10.859Z,95209.83
2017-08-18T02:52:38.409Z,95216.08
2017-08-18T02:55:05.942Z,95220.47
2017-08-18T02:57:33.478Z,95220.52
2017-08-18T03:00:01.032Z,95223.00
2017-08-18T03:02:28.577Z,95214.14
2017-08-18T03:04:56.147Z,95226.98
2017-08-18T03:07:23.690Z,95227.95
2017-08-18T03:09:51.262Z,95231.00
2017-08-18T03:12:18.794Z,95235.41
2017-08-18T03:14:46.296Z,95239.05
2017-08-18T03:17:13.850Z,95237.18
2017-08-18T03:19:41.417Z,95247.98
2017-08-18T03:22:08.946Z,95248.59
2017-08-18T03:24:36.477Z,95254.27
2017-08-18T03:27:04.043Z,95250.88
2017-08-18T03:29:31.581Z,95249.02
2017-08-18T03:31:59.087Z,95254.50
2017-08-18T03:34:26.604Z,95263.08
2017-08-18T03:36:54.155Z,95264.41
2017-08-18T03:39:21.674Z,95262.16
2017-08-18T03:41:49.212Z,95254.18
2017-08-18T03:44:16.730Z,95261.15
2017-08-18T03:46:44.349Z,95269.27
2017-08-18T03:49:11.856Z,95267.06
2017-08-18T03:51:39.378Z,95280.64
2017-08-18T03:54:06.961Z,95275.47
2017-08-18T03:56:34.459Z,95277.34
2017-08-18T03:59:01.957Z,95276.41
2017-08-18T04:01:29.506Z,95282.81
2017-08-18T04:03:57.079Z,95282.81
2017-08-18T04:06:24.638Z,95294.30
2017-08-18T04:08:52.137Z,95289.52
2017-08-18T04:11:19.684Z,95285.53
2017-08-18T04:13:47.188Z,95290.07
2017-08-18T04:16:14.688Z,95288.95
2017-08-18T04:18:42.241Z,95292.72
2017-08-18T04:21:09.784Z,95289.89
2017-08-18T04:23:37.331Z,95288.14
2017-08-18T04:26:04.826Z,95292.09
2017-08-18T04:28:32.369Z,95297.22
2017-08-18T04:30:59.989Z,95295.68
2017-08-18T04:33:27.533Z,95299.65
2017-08-18T04:35:55.102Z,95296.25
2017-08-18T04:38:22.723Z,95300.41
2017-08-18T04:40:50.275Z,95294.84
2017-08-18T04:43:17.771Z,95302.20
2017-08-18T04:45:45.305Z,95305.91
2017-08-18T04:48:12.819Z,95306.44
2017-08-18T04:50:40.373Z,95311.19
2017-08-18T04:53:07.868Z,95310.97
2017-08-18T04:55:35.385Z,95310.58
2017-08-18T04:58:02.916Z,95314.55
2017-08-18T05:00:30.441Z,95321.91
2017-08-18T05:02:57.978Z,95318.91
2017-08-18T05:05:25.481Z,95328.18
2017-08-18T05:07:53.034Z,95326.12
2017-08-18T05:10:20.569Z,95324.97
2017-08-18T05:12:48.106Z,95319.38
2017-08-18T05:15:15.661Z,95326.43
2017-08-18T05:17:43.165Z,95319.17
2017-08-18T05:20:10.715Z,95317.40
2017-08-18T05:22:38.404Z,95321.69
2017-08-18T05:25:05.906Z,95319.79
2017-08-18T05:27:33.469Z,95324.29
2017-08-18T05:30:01.173Z,95318.20
2017-08-18T05:32:28.689Z,95329.92
2017-08-18T05:34:56.349Z,95327.73
2017-08-18T05:37:23.858Z,95328.39
2017-08-18T05:39:51.407Z,95320.21
2017-08-18T05:42:18.983Z,95325.47
2017-08-18T05:44:47.026Z,95316.64
2017-08-18T05:47:14.637Z,95337.58
2017-08-18T05:49:42.155Z,95346.09
2017-08-18T05:52:09.740Z,95334.52
2017-08-18T05:54:37.305Z,95334.97
2017-08-18T05:57:04.925Z,95348.05
2017-08-18T05:59:32.531Z,95338.73
2017-08-18T06:02:00.112Z,95330.81
2017-08-18T06:04:27.998Z,95342.70
2017-08-18T06:06:55.891Z,95336.95
2017-08-18T06:48:49.059Z,95380.65
2017-08-18T06:51:16.690Z,95374.53
2017-08-18T06:54:06.122Z,95376.84
2017-08-18T06:56:35.791Z,95359.59
2017-08-18T06:59:04.575Z,95379.80
2017-08-18T07:01:33.731Z,95377.65
2017-08-18T07:04:02.479Z,95358.52
2017-08-18T07:06:30.588Z,95379.42
2017-08-18T07:08:58.258Z,95369.58
2017-08-18T07:11:25.915Z,95366.50
2017-08-18T07:13:53.877Z,95350.78
2017-08-18T07:16:21.611Z,95368.58
2017-08-18T07:18:49.525Z,95375.91
2017-08-18T07:21:17.050Z,95375.41
2017-08-18T07:23:44.702Z,95375.25
2017-08-18T07:26:12.495Z,95370.38
2017-08-18T07:28:40.222Z,95379.99
2017-08-18T07:31:07.925Z,95367.86
2017-08-18T07:33:35.580Z,95366.06
2017-08-18T07:36:03.416Z,95370.94
2017-08-18T07:38:36.187Z,95357.98
2017-08-18T07:41:09.558Z,95369.77
2017-08-18T07:43:41.917Z,95374.50
2017-08-18T07:46:09.908Z,95369.50
2017-08-18T07:48:42.748Z,95372.69
2017-08-18T07:51:11.944Z,95351.86
2017-08-18T07:53:49.528Z,95364.52
2017-08-18T07:56:19.146Z,95354.53
2017-08-18T07:58:47.500Z,95367.68
2017-08-18T08:01:19.842Z,95365.42
2017-08-18T08:03:48.096Z,95363.38
2017-08-18T08:06:15.724Z,95352.83
2017-08-18T08:08:51.039Z,95361.45
2017-08-18T08:11:18.871Z,95367.37
2017-08-18T08:13:49.341Z,95354.80
2017-08-18T08:16:17.099Z,95348.66
2017-08-18T08:18:44.781Z,95355.24
2017-08-18T08:21:12.542Z,95364.58
2017-08-18T08:23:43.733Z,95361.28
2017-08-18T08:26:11.655Z,95366.89
2017-08-18T08:28:41.902Z,95365.34
2017-08-18T08:31:10.968Z,95364.83
2017-08-18T08:33:43.227Z,95359.67
2017-08-18T08:36:11.165Z,95359.27
2017-08-18T08:38:39.788Z,95353.86
2017-08-18T08:41:09.077Z,95348.09
2017-08-18T08:43:36.836Z,95352.98
2017-08-18T08:46:06.158Z,95356.77
2017-08-18T08:48:34.736Z,95345.42
2017-08-18T08:51:05.882Z,95346.34
2017-08-18T08:53:40.445Z,95349.39
2017-08-18T08:56:10.111Z,95346.20
2017-08-18T08:58:40.111Z,95346.05
2017-08-18T09:01:09.269Z,95347.84
2017-08-18T09:04:00.194Z,95337.66
2017-08-18T09:06:35.245Z,95341.17
2017-08-18T09:09:04.866Z,95330.06
2017-08-18T09:11:32.856Z,95338.50
2017-08-18T09:14:01.750Z,95326.07
2017-08-18T09:16:36.534Z,95335.29
2017-08-18T09:19:09.183Z,95322.09
2017-08-18T09:21:39.349Z,95328.14
2017-08-18T09:24:06.898Z,95322.50
2017-08-18T09:26:35.227Z,95326.97
2017-08-18T09:29:03.184Z,95322.36
2017-08-18T09:31:30.853Z,95329.72
2017-08-18T09:33:58.603Z,95326.07
2017-08-18T09:36:29.329Z,95305.74
2017-08-18T09:39:01.018Z,95325.83
2017-08-18T09:41:31.946Z,95319.40
2017-08-18T09:44:03.563Z,95325.25
2017-08-18T09:46:33.954Z,95311.89
2017-08-18T09:49:04.623Z,95308.05
2017-08-18T09:54:10.246Z,95307.45
2017-08-18T09:56:40.131Z,95312.81
2017-08-18T09:59:17.434Z,95305.52
2017-08-18T10:01:46.596Z,95303.15
2017-08-18T10:04:20.954Z,95300.08
2017-08-18T10:06:49.099Z,95303.50
2017-08-18T10:09:18.328Z,95298.96
2017-08-18T10:11:47.498Z,95293.33
2017-08-18T10:14:15.534Z,95283.37
2017-08-18T10:16:43.463Z,95297.38
2017-08-18T10:19:11.267Z,95303.71
2017-08-18T10:21:43.179Z,95301.10
2017-08-18T10:24:10.798Z,95306.59
2017-08-18T10:26:40.805Z,95298.02
2017-08-18T10:29:08.766Z,95275.78
2017-08-18T10:31:38.098Z,95294.59
2017-08-18T10:34:09.461Z,95289.38
2017-08-18T10:36:37.107Z,95285.77
2017-08-18T10:39:06.346Z,95283.83
2017-08-18T10:41:35.246Z,95277.13
2017-08-18T10:47:24.514Z,95280.52
2017-08-18T10:49:52.182Z,95276.66
2017-08-18T10:52:19.991Z,95275.03
2017-08-18T10:54:47.686Z,95267.61
2017-08-18T10:57:15.312Z,95265.66
2017-08-18T10:59:44.748Z,95269.67
2017-08-18T11:02:13.119Z,95271.67
2017-08-18T11:04:41.519Z,95263.89
2017-08-18T11:07:09.476Z,95263.67
2017-08-18T11:09:43.047Z,95257.95
2017-08-18T11:15:52.733Z,95262.50
2017-08-18T11:35:30.241Z,95233.38
2017-08-18T11:37:58.367Z,95233.25
2017-08-18T11:40:26.378Z,95228.45
2017-08-18T11:42:54.648Z,95229.45
2017-08-18T11:45:24.372Z,95220.86
2017-08-18T11:47:55.230Z,95226.66
2017-08-18T11:50:23.349Z,95227.81
2017-08-18T11:52:51.169Z,95222.16
2017-08-18T11:55:19.235Z,95218.28
2017-08-18T11:57:46.879Z,95219.01
2017-08-18T12:00:21.586Z,95210.11
2017-08-18T12:02:49.259Z,95205.06
2017-08-18T12:05:17.024Z,95212.69
2017-08-18T12:07:44.674Z,95215.87
2017-08-18T12:10:12.275Z,95207.32
2017-08-18T12:12:39.991Z,95209.58
2017-08-18T12:15:07.792Z,95196.11
2017-08-18T12:17:37.713Z,95201.16
2017-08-18T12:20:26.329Z,95174.08
2017-08-18T12:22:54.123Z,95195.06
2017-08-18T12:25:22.895Z,95199.75
2017-08-18T12:27:50.866Z,95201.54
2017-08-18T12:40:27.540Z,95193.53
2017-08-18T12:42:55.381Z,95191.19
2017-08-18T12:45:27.109Z,95187.78
2017-08-18T12:47:57.249Z,95179.98
2017-08-18T12:50:25.192Z,95195.28
2017-08-18T12:52:53.101Z,95170.20
2017-08-18T12:55:21.071Z,95188.52
2017-08-18T12:57:50.006Z,95187.94
2017-08-18T13:00:18.126Z,95179.78
2017-08-18T13:02:56.332Z,95177.07
2017-08-18T13:05:24.791Z,95187.27
2017-08-18T13:08:19.564Z,95180.63
2017-08-18T13:10:47.779Z,95169.30
2017-08-18T13:13:15.896Z,95166.58
2017-08-18T13:15:45.019Z,95173.61
2017-08-18T13:18:23.601Z,95177.80
2017-08-18T13:21:07.990Z,95177.44
2017-08-18T13:23:36.472Z,95164.02
2017-08-18T13:26:08.644Z,95163.73
2017-08-18T13:28:38.389Z,95177.73
2017-08-18T13:31:07.176Z,95167.22
2017-08-18T13:33:35.014Z,95162.66
2017-08-18T13:36:03.164Z,95166.56
2017-08-18T13:38:34.068Z,95169.13
2017-08-18T13:41:04.428Z,95161.33
2017-08-18T13:43:32.402Z,95167.22
2017-08-18T13:46:10.827Z,95170.22
2017-08-18T13:48:43.961Z,95157.92
2017-08-18T13:51:11.961Z,95155.13
2017-08-18T13:53:40.844Z,95156.27
2017-08-18T13:56:08.547Z,95146.73
2017-08-18T13:58:41.733Z,95148.67
2017-08-18T14:01:09.627Z,95144.58
2017-08-18T14:03:37.254Z,95127.05
2017-08-18T14:06:04.885Z,95131.94
2017-08-18T14:08:32.564Z,95138.11
2017-08-18T14:11:00.153Z,95137.41
2017-08-18T14:13:27.801Z,95137.87
2017-08-18T14:15:55.464Z,95135.82
2017-08-18T14:18:23.082Z,95134.86
2017-08-18T14:20:50.708Z,95122.30
2017-08-18T14:23:18.369Z,95140.20
2017-08-18T14:25:45.957Z,95134.91
2017-08-18T14:28:13.526Z,95129.64
2017-08-18T14:30:41.118Z,95133.64
2017-08-18T14:33:08.697Z,95130.97
2017-08-18T14:35:36.335Z,95140.08
2017-08-18T14:38:04.023Z,95144.15
2017-08-18T14:40:40.512Z,95142.94
2017-08-18T14:43:08.126Z,95139.16
2017-08-18T14:45:35.702Z,95139.66
2017-08-18T14:48:03.301Z,95136.08
2017-08-18T14:50:30.946Z,95134.20
2017-08-18T14:52:58.510Z,95134.78
2017-08-18T14:55:26.143Z,95128.97
2017-08-18T14:57:53.806Z,95136.25
2017-08-18T15:00:21.314Z,95124.17
2017-08-18T15:02:48.856Z,95126.02
2017-08-18T15:05:16.458Z,95124.24
2017-08-18T15:07:44.144Z,95130.43
2017-08-18T15:10:11.753Z,95131.73
2017-08-18T15:12:39.265Z,95124.14
2017-08-18T15:15:07.100Z,95122.69
2017-08-18T15:17:34.682Z,95129.09
2017-08-18T15:20:02.241Z,95112.00
2017-08-18T15:22:29.788Z,95119.67
2017-08-18T15:24:57.395Z,95113.26
2017-08-18T15:27:25.353Z,95109.48
2017-08-18T15:29:52.900Z,95120.94
2017-08-18T15:32:20.466Z,95114.18
2017-08-18T15:34:48.038Z,95114.85
2017-08-18T15:37:15.548Z,95124.28
2017-08-18T15:39:43.130Z,95121.23
2017-08-18T15:42:10.714Z,95117.11
2017-08-18T15:44:38.314Z,95113.59
2017-08-18T15:47:06.209Z,95112.41
2017-08-18T15:49:33.956Z,95116.70
2017-08-18T15:52:01.657Z,95122.27
2017-08-18T15:54:29.528Z,95133.28
2017-08-18T15:56:59.544Z,95126.42
2017-08-18T15:59:27.485Z,95133.84
2017-08-18T16:01:55.067Z,95134.10
2017-08-18T16:04:22.655Z,95137.54
2017-08-18T16:06:50.230Z,95135.00
2017-08-18T16:09:17.892Z,95142.33
2017-08-18T16:11:45.476Z,95143.50
2017-08-18T16:14:13.100Z,95145.63
2017-08-18T16:16:40.726Z,95147.54
2017-08-18T16:19:08.285Z,95149.28
2017-08-18T16:21:35.865Z,95150.84
2017-08-18T16:24:04.619Z,95142.66
2017-08-18T16:26:32.118Z,95137.48
2017-08-18T16:28:59.820Z,95146.34
2017-08-18T16:31:27.638Z,95139.77
2017-08-18T16:33:56.789Z,95143.20
2017-08-18T16:36:24.318Z,95141.64
2017-08-18T16:38:51.861Z,95141.28
2017-08-18T16:41:19.368Z,95144.95
2017-08-18T16:43:46.917Z,95144.75
2017-08-18T16:46:14.432Z,95137.26
2017-08-18T16:48:41.973Z,95148.05
2017-08-18T16:51:09.471Z,95150.30
2017-08-18T16:53:37.022Z,95149.39
2017-08-18T16:56:04.521Z,95157.64
2017-08-18T16:58:32.023Z,95151.77
2017-08-18T17:00:59.569Z,95146.69
2017-08-18T17:03:27.131Z,95149.70
2017-08-18T17:05:54.629Z,95151.00
2017-08-18T17:08:22.125Z,95155.77
2017-08-18T17:10:49.716Z,95156.66
2017-08-18T17:13:17.214Z,95156.41
2017-08-18T17:15:44.756Z,95164.36
2017-08-18T17:18:12.300Z,95156.08
2017-08-18T17:20:39.808Z,95162.84
2017-08-18T17:23:07.349Z,95161.00
2017-08-18T17:25:34.890Z,95171.64
2017-08-18T17:28:02.393Z,95172.72
2017-08-18T17:30:29.898Z,95173.19
2017-08-18T17:32:57.433Z,95179.00
2017-08-18T17:35:25.000Z,95183.28
2017-08-18T17:37:52.501Z,95184.02
2017-08-18T17:40:20.015Z,95185.47
2017-08-18T17:42:47.569Z,95181.66
2017-08-18T17:45:15.081Z,95186.11
2017-08-18T17:47:42.577Z,95190.59
2017-08-18T17:50:10.122Z,95195.38
2017-08-18T17:52:37.624Z,95196.59
2017-08-18T17:55:05.120Z,95190.20
2017-08-18T17:57:32.706Z,95209.02
2017-08-18T18:00:00.206Z,95209.80
2017-08-18T18:02:27.710Z,95207.96
2017-08-18T18:04:55.294Z,95211.58
2017-08-18T18:07:22.797Z,95215.08
2017-08-18T18:09:50.306Z,95214.88
2017-08-18T18:12:17.874Z,95215.48
2017-08-18T18:14:45.384Z,95210.16
2017-08-18T18:17:12.876Z,95221.30
2017-08-18T18:19:40.413Z,95221.91
2017-08-18T18:22:07.910Z,95224.03
2017-08-18T18:24:35.479Z,95222.53
2017-08-18T18:27:02.999Z,95222.73
2017-08-18T18:29:30.501Z,95220.09
2017-08-18T18:31:58.029Z,95218.47
2017-08-18T18:34:25.529Z,95222.05
2017-08-18T18:36:53.066Z,95230.47
2017-08-18T18:39:20.586Z,95221.33
2017-08-18T18:41:48.121Z,95230.88
2017-08-18T18:44:15.621Z,95228.46
2017-08-18T18:46:43.167Z,95227.70
2017-08-18T18:49:10.669Z,95231.32
2017-08-18T18:51:38.206Z,95230.78
2017-08-18T18:54:05.734Z,95231.41
2017-08-18T18:56:33.284Z,95230.27
2017-08-18T18:59:00.857Z,95228.66
2017-08-18T19:01:28.372Z,95231.64
2017-08-18T19:03:55.915Z,95232.38
2017-08-18T19:06:23.428Z,95233.52
2017-08-18T19:08:51.027Z,95235.58
2017-08-18T19:11:18.525Z,95236.59
2017-08-18T19:13:46.065Z,95230.53
2017-08-18T19:16:13.586Z,95228.49
2017-08-18T19:18:41.140Z,95229.31
2017-08-18T19:21:08.672Z,95229.86
2017-08-18T19:23:36.177Z,95232.55
2017-08-18T19:26:03.744Z,95228.58
2017-08-18T19:28:31.294Z,95234.30
2017-08-18T19:30:58.799Z,95229.19
2017-08-18T19:33:26.380Z,95229.02
2017-08-18T19:35:53.877Z,95227.50
2017-08-18T19:38:21.432Z,95228.19
2017-08-18T19:40:48.967Z,95233.88
2017-08-18T19:43:16.473Z,95230.83
2017-08-18T19:45:44.010Z,95230.72
2017-08-18T19:48:11.509Z,95229.95
2017-08-18T19:50:39.081Z,95231.19
2017-08-18T19:53:06.637Z,95224.36
2017-08-18T19:55:34.174Z,95219.06
2017-08-18T19:58:01.760Z,95222.67
2017-08-18T20:00:29.353Z,95211.13
2017-08-18T20:02:56.845Z,95228.66
2017-08-18T20:05:24.389Z,95219.97
2017-08-18T20:07:51.937Z,95222.41
2017-08-18T20:10:19.433Z,95221.70
2017-08-18T20:12:46.983Z,95221.33
2017-08-18T20:15:14.517Z,95215.45
2017-08-18T20:17:42.081Z,95214.85
2017-08-18T20:20:09.581Z,95214.91
2017-08-18T20:22:37.188Z,95211.10
2017-08-18T20:25:04.747Z,95220.30
2017-08-18T20:27:32.256Z,95217.82
2017-08-18T20:29:59.857Z,95218.61
2017-08-18T20:32:27.356Z,95212.73
2017-08-18T20:34:54.923Z,95218.06
2017-08-18T20:37:22.425Z,95226.69
2017-08-18T20:39:49.934Z,95225.25
2017-08-18T20:42:17.557Z,95229.22
2017-08-18T20:44:45.113Z,95228.84
2017-08-18T20:47:12.629Z,95219.02
2017-08-18T20:49:40.186Z,95224.30
2017-08-18T20:52:07.686Z,95223.56
2017-08-18T20:54:35.190Z,95220.73
2017-08-18T20:57:02.800Z,95219.08
2017-08-18T20:59:30.329Z,95218.23
2017-08-18T21:01:57.893Z,95221.60
2017-08-18T21:04:25.434Z,95222.01
2017-08-18T21:06:53.031Z,95222.39
2017-08-18T21:09:20.588Z,95217.85
2017-08-18T21:11:48.148Z,95226.41
2017-08-18T21:14:15.645Z,95231.03
2017-08-18T21:16:43.186Z,95230.44
2017-08-18T21:19:10.734Z,95220.00
2017-08-18T21:21:38.238Z,95225.92
2017-08-18T21:24:05.738Z,95223.45
2017-08-18T21:26:33.281Z,95224.18
2017-08-18T21:29:00.855Z,95219.48
2017-08-18T21:31:28.361Z,95223.50
2017-08-18T21:33:55.861Z,95213.60
2017-08-18T21:36:23.415Z,95222.45
2017-08-18T21:38:50.984Z,95226.56
2017-08-18T21:41:18.533Z,95227.08
2017-08-18T21:43:46.029Z,95226.42
2017-08-18T21:46:13.574Z,95225.91
2017-08-18T21:48:41.078Z,95224.03
2017-08-18T21:51:08.641Z,95225.20
2017-08-18T21:53:36.150Z,95229.72
2017-08-18T21:56:03.664Z,95229.22
2017-08-18T21:58:31.269Z,95232.05
2017-08-18T22:00:58.801Z,95240.23
2017-08-18T22:03:26.423Z,95229.73
2017-08-18T22:05:54.042Z,95230.98
2017-08-18T22:08:21.550Z,95233.78
2017-08-18T22:10:49.055Z,95236.85
2017-08-18T22:13:16.601Z,95235.17
2017-08-18T22:15:44.109Z,95234.65
2017-08-18T22:18:11.605Z,95235.00
2017-08-18T22:20:39.166Z,95229.32
2017-08-18T22:23:06.758Z,95226.70
2017-08-18T22:25:34.293Z,95227.41
2017-08-18T22:28:01.833Z,95227.82
2017-08-18T22:30:29.394Z,95232.45
2017-08-18T22:32:57.067Z,95228.84
2017-08-18T22:35:24.626Z,95228.70
2017-08-18T22:37:52.134Z,95226.83
2017-08-18T22:40:19.681Z,95224.03
2017-08-18T22:42:47.177Z,95223.42
2017-08-18T22:45:14.718Z,95219.27
2017-08-18T22:47:42.261Z,95219.66
2017-08-18T22:50:09.834Z,95218.77
2017-08-18T22:52:37.374Z,95224.27
2017-08-18T22:55:04.869Z,95214.75
2017-08-18T22:57:32.526Z,95209.29
2017-08-18T23:00:00.311Z,95215.61
2017-08-18T23:02:27.809Z,95217.30
2017-08-18T23:04:55.363Z,95212.19
2017-08-18T23:07:22.893Z,95211.21
2017-08-18T23:09:50.446Z,95207.22
2017-08-18T23:12:17.947Z,95205.56
2017-08-18T23:14:45.528Z,95204.80
2017-08-18T23:17:13.033Z,95203.08
2017-08-18T23:19:40.582Z,95200.85
2017-08-18T23:22:08.095Z,95198.98
2017-08-18T23:24:35.701Z,95199.98
2017-08-18T23:27:03.222Z,95200.00
2017-08-18T23:29:30.767Z,95199.48
2017-08-18T23:31:58.277Z,95194.41
2017-08-18T23:34:25.860Z,95193.06
2017-08-18T23:36:53.361Z,95190.05
2017-08-18T23:39:20.938Z,95193.11
2017-08-18T23:41:48.462Z,95194.84
2017-08-18T23:44:15.973Z,95186.69
2017-08-18T23:46:43.529Z,95198.45
2017-08-18T23:49:11.093Z,95185.97
2017-08-18T23:51:38.601Z,95193.17
2017-08-18T23:54:06.123Z,95192.08
2017-08-18T23:56:33.686Z,95192.06
2017-08-18T23:59:01.233Z,95187.52
